Time;durP1;ratioP1;P1;durP2;ratioP2;P2;SDS_P1;SDS_P2;PMS_P1;PMS_P2;Temp;Humidity;BMP_temperature;BMP_pressure;BME280_temperature;BME280_humidity;BME280_pressure;Samples;Min_cycle;Max_cycle;Signal;HPM_P1;HPM_P2
2021/07/03 02:03:56;;;;;;;12.40;9.20;;;17.80;98.30;;;;;;5176176;22;20831;-84
2021/07/03 02:05:59;;;;;;;10.67;9.50;;;17.90;98.30;;;;;;5201786;22;20924;-84
2021/07/03 02:08:06;;;;;;;14.00;10.20;;;17.80;98.30;;;;;;5206208;22;20422;-86
2021/07/03 02:10:23;;;;;;;11.33;10.13;;;17.80;98.30;;;;;;5164096;22;20416;-83
2021/07/03 02:12:27;;;;;;;10.80;9.60;;;17.80;98.30;;;;;;5206409;22;20445;-84
2021/07/03 02:14:31;;;;;;;11.50;10.27;;;17.80;98.30;;;;;;5207651;22;20423;-84
2021/07/03 02:16:35;;;;;;;11.30;9.50;;;17.80;98.30;;;;;;5207979;22;20478;-83
2021/07/03 02:18:39;;;;;;;10.80;9.70;;;17.70;98.30;;;;;;5207034;22;20414;-84
2021/07/03 02:20:46;;;;;;;12.23;10.53;;;17.70;98.30;;;;;;5207372;22;20419;-84
2021/07/03 02:22:54;;;;;;;12.00;10.60;;;17.70;98.30;;;;;;5204600;22;20533;-84
2021/07/03 02:28:33;;;;;;;11.10;9.30;;;17.80;98.30;;;;;;5159689;22;20748;-84
2021/07/03 02:30:43;;;;;;;12.67;9.73;;;17.80;98.30;;;;;;5189243;22;20915;-84
2021/07/03 02:41:39;;;;;;;13.80;11.43;;;17.60;98.30;;;;;;5138333;23;20889;-85
2021/07/03 03:19:22;;;;;;;21.50;16.77;;;17.50;98.30;;;;;;4900180;24;20561;-84
2021/07/03 03:21:34;;;;;;;26.00;21.30;;;17.50;98.30;;;;;;4909680;24;20445;-84
2021/07/03 03:23:57;;;;;;;15.40;13.57;;;17.60;98.30;;;;;;4949016;23;20492;-84
2021/07/03 03:26:05;;;;;;;16.73;14.87;;;17.50;98.30;;;;;;4988481;23;20431;-85
2021/07/03 03:28:09;;;;;;;56.40;44.43;;;17.50;98.30;;;;;;5075329;23;20498;-84
2021/07/03 03:30:13;;;;;;;64.73;49.00;;;17.50;98.30;;;;;;5118837;23;20476;-84
2021/07/03 03:32:16;;;;;;;31.50;25.50;;;17.40;98.30;;;;;;5124653;23;20517;-84
2021/07/03 03:34:20;;;;;;;17.77;15.30;;;17.40;98.30;;;;;;5124430;23;20524;-84
2021/07/03 03:36:23;;;;;;;17.47;15.00;;;17.30;98.30;;;;;;5124227;23;20501;-84
2021/07/03 03:38:30;;;;;;;16.43;14.17;;;17.30;98.30;;;;;;5165129;22;20443;-84
2021/07/03 03:40:58;;;;;;;15.03;13.50;;;17.30;98.30;;;;;;5202531;22;20415;-84
2021/07/03 03:43:01;;;;;;;15.70;13.63;;;17.30;98.30;;;;;;5200435;22;20442;-84
2021/07/03 03:45:06;;;;;;;15.50;12.97;;;17.40;98.30;;;;;;5202378;22;20415;-84
2021/07/03 03:47:09;;;;;;;14.50;13.10;;;17.40;98.30;;;;;;5202468;22;20876;-84
2021/07/03 03:49:12;;;;;;;16.20;12.73;;;17.40;98.30;;;;;;5202194;22;20419;-84
2021/07/03 03:51:15;;;;;;;17.30;14.43;;;17.30;98.30;;;;;;5201895;22;20534;-84
2021/07/03 03:53:19;;;;;;;14.63;13.23;;;17.30;98.30;;;;;;5200719;22;20959;-85
2021/07/03 03:55:23;;;;;;;15.20;13.50;;;17.40;98.30;;;;;;5192516;22;20434;-84
2021/07/03 03:57:30;;;;;;;16.90;13.93;;;17.40;98.30;;;;;;5201133;22;20998;-84
2021/07/03 03:59:33;;;;;;;16.43;13.93;;;17.40;98.30;;;;;;5200263;22;21014;-85
2021/07/03 04:01:36;;;;;;;16.67;13.60;;;17.40;98.30;;;;;;5201754;22;20437;-84
2021/07/03 04:03:39;;;;;;;20.33;18.20;;;17.40;98.30;;;;;;5202525;22;20457;-84
2021/07/03 04:05:42;;;;;;;43.93;34.53;;;17.40;98.30;;;;;;5202200;22;20422;-84
2021/07/03 04:07:46;;;;;;;42.43;34.13;;;17.60;98.30;;;;;;5203616;22;20494;-84
2021/07/03 04:09:49;;;;;;;37.70;29.23;;;17.70;98.30;;;;;;5203296;22;20418;-86
2021/07/03 04:11:55;;;;;;;19.50;17.40;;;17.70;98.30;;;;;;5207098;22;20435;-83
2021/07/03 04:14:01;;;;;;;19.30;15.83;;;17.80;98.30;;;;;;5207112;22;20456;-84
2021/07/03 04:16:05;;;;;;;17.30;15.43;;;17.70;98.30;;;;;;5207237;22;20426;-84
2021/07/03 04:18:09;;;;;;;17.70;14.67;;;17.70;98.30;;;;;;5202148;22;20429;-85
2021/07/03 04:20:12;;;;;;;15.43;13.77;;;17.70;98.30;;;;;;5203565;22;20443;-85
2021/07/03 04:22:16;;;;;;;17.20;14.03;;;17.70;98.30;;;;;;5203903;22;20541;-84
2021/07/03 04:24:19;;;;;;;18.50;15.10;;;17.60;98.30;;;;;;5203557;22;20485;-84
2021/07/03 04:26:22;;;;;;;18.83;16.13;;;17.40;98.30;;;;;;5202665;22;20509;-84
2021/07/03 04:28:26;;;;;;;19.03;17.10;;;17.30;98.30;;;;;;5202708;22;20426;-84
2021/07/03 04:30:29;;;;;;;18.40;15.33;;;17.30;98.30;;;;;;5205542;22;20510;-84
2021/07/03 04:32:32;;;;;;;23.10;15.20;;;17.20;98.30;;;;;;5206065;22;20443;-84
2021/07/03 04:34:36;;;;;;;18.97;17.13;;;17.30;98.30;;;;;;5206444;22;20886;-84
2021/07/03 04:36:39;;;;;;;18.57;14.63;;;17.40;98.30;;;;;;5203606;22;20423;-84
2021/07/03 04:38:42;;;;;;;16.70;15.00;;;17.40;98.30;;;;;;5202359;22;20482;-84
2021/07/03 04:40:45;;;;;;;19.07;15.90;;;17.50;98.30;;;;;;5203132;22;20962;-84
2021/07/03 04:42:48;;;;;;;16.83;15.03;;;17.50;98.30;;;;;;5202868;22;20439;-84
2021/07/03 04:44:53;;;;;;;17.13;15.43;;;17.70;98.30;;;;;;5202299;22;20966;-84
2021/07/03 04:46:56;;;;;;;16.00;14.47;;;17.70;98.30;;;;;;5202060;22;20522;-85
2021/07/03 04:49:00;;;;;;;15.83;14.00;;;17.60;98.30;;;;;;5193229;22;20427;-84
2021/07/03 04:51:03;;;;;;;16.50;14.73;;;17.60;98.30;;;;;;5201168;22;20446;-85
2021/07/03 04:53:07;;;;;;;19.83;15.80;;;17.60;98.30;;;;;;5201456;22;20533;-84
2021/07/03 04:55:12;;;;;;;20.63;15.23;;;17.50;98.30;;;;;;5200926;22;20996;-85
2021/07/03 04:57:15;;;;;;;18.87;15.33;;;17.40;98.30;;;;;;5201259;22;20422;-85
2021/07/03 04:59:18;;;;;;;17.07;15.27;;;17.20;98.30;;;;;;5193221;22;20431;-84
2021/07/03 05:01:23;;;;;;;17.93;14.70;;;17.20;98.30;;;;;;5201445;22;20455;-85
2021/07/03 05:03:26;;;;;;;16.67;14.87;;;17.20;98.30;;;;;;5201290;22;20450;-85
2021/07/03 05:05:29;;;;;;;18.03;14.63;;;17.20;98.30;;;;;;5201376;22;20722;-85
2021/07/03 05:07:32;;;;;;;15.00;13.33;;;17.30;98.30;;;;;;5202491;22;20426;-86
2021/07/03 05:09:35;;;;;;;15.53;13.93;;;17.40;98.30;;;;;;5195251;22;21190;-84
2021/07/03 05:11:39;;;;;;;16.67;13.60;;;17.50;98.30;;;;;;5202051;22;20514;-84
2021/07/03 05:13:42;;;;;;;17.30;14.17;;;17.60;98.30;;;;;;5202338;22;20423;-84
2021/07/03 05:15:46;;;;;;;16.00;12.67;;;17.70;98.30;;;;;;5202509;22;20431;-84
2021/07/03 05:17:50;;;;;;;17.90;11.80;;;17.70;98.30;;;;;;5201870;22;20428;-84
2021/07/03 05:19:54;;;;;;;15.03;12.63;;;17.80;98.30;;;;;;5201521;22;20450;-83
2021/07/03 05:21:57;;;;;;;13.13;11.83;;;17.80;98.30;;;;;;5193298;22;20478;-85
2021/07/03 05:24:00;;;;;;;13.53;12.03;;;17.70;98.30;;;;;;5193318;22;20438;-84
2021/07/03 05:26:03;;;;;;;12.53;11.23;;;17.70;98.30;;;;;;5201799;22;20418;-84
2021/07/03 05:28:06;;;;;;;15.67;11.07;;;17.60;98.30;;;;;;5201844;22;20426;-84
2021/07/03 05:30:11;;;;;;;18.90;12.60;;;17.70;98.30;;;;;;5204645;22;21021;-84
2021/07/03 05:32:14;;;;;;;11.40;10.00;;;17.70;98.30;;;;;;5200805;22;20530;-85
2021/07/03 05:34:18;;;;;;;10.80;9.77;;;17.70;98.30;;;;;;5192821;22;20431;-85
2021/07/03 05:36:21;;;;;;;13.67;9.93;;;17.70;98.30;;;;;;5201317;22;20427;-85
2021/07/03 05:38:25;;;;;;;14.50;10.50;;;17.80;98.30;;;;;;5201497;22;20453;-85
2021/07/03 05:40:30;;;;;;;12.33;9.37;;;17.90;98.30;;;;;;5200616;22;20443;-85
2021/07/03 05:42:34;;;;;;;11.90;9.53;;;18.00;98.30;;;;;;5200753;22;20484;-85
2021/07/03 05:44:37;;;;;;;11.03;9.80;;;18.10;98.30;;;;;;5201471;22;20415;-85
2021/07/03 05:46:41;;;;;;;10.60;9.43;;;18.20;98.30;;;;;;5203707;22;20422;-84
2021/07/03 05:48:47;;;;;;;12.40;9.13;;;18.20;98.30;;;;;;5203421;22;20480;-84
2021/07/03 05:50:51;;;;;;;11.87;9.90;;;18.30;98.30;;;;;;5205120;22;20457;-84
2021/07/03 05:52:55;;;;;;;10.03;8.50;;;18.50;98.30;;;;;;5205081;22;21029;-84
2021/07/03 05:55:00;;;;;;;11.37;9.43;;;18.60;98.30;;;;;;5204658;22;20430;-84
2021/07/03 05:57:04;;;;;;;8.67;7.50;;;18.70;98.30;;;;;;5207050;22;20430;-84
2021/07/03 05:59:07;;;;;;;9.53;7.97;;;18.60;98.30;;;;;;5196259;22;20509;-84
2021/07/03 06:01:10;;;;;;;25.87;21.70;;;18.60;98.30;;;;;;5208267;22;20442;-84
2021/07/03 06:03:14;;;;;;;17.20;15.00;;;18.70;98.30;;;;;;5203908;22;20541;-84
2021/07/03 06:05:17;;;;;;;19.60;17.00;;;18.70;98.30;;;;;;5195398;22;20938;-85
2021/07/03 06:07:21;;;;;;;14.83;13.27;;;18.80;98.30;;;;;;5204302;22;20446;-84
2021/07/03 06:09:24;;;;;;;14.63;12.13;;;18.80;98.30;;;;;;5202863;22;20423;-84
2021/07/03 06:11:27;;;;;;;10.97;9.60;;;18.80;98.30;;;;;;5201710;22;20908;-84
2021/07/03 06:13:30;;;;;;;11.50;9.07;;;18.80;98.30;;;;;;5202261;22;20434;-83
2021/07/03 06:15:36;;;;;;;10.33;9.30;;;18.70;98.30;;;;;;5202193;22;20938;-85
2021/07/03 06:17:39;;;;;;;10.77;8.70;;;18.80;98.30;;;;;;5202564;22;20503;-84
2021/07/03 06:19:43;;;;;;;12.20;9.60;;;18.90;98.30;;;;;;5203675;22;20510;-85
2021/07/03 06:21:46;;;;;;;10.87;9.03;;;18.90;98.30;;;;;;5196127;22;20442;-85
2021/07/03 06:23:51;;;;;;;15.43;13.83;;;18.90;98.30;;;;;;5204476;22;20447;-84
2021/07/03 06:25:54;;;;;;;23.40;18.67;;;19.00;98.30;;;;;;5204264;22;20451;-84
2021/07/03 06:28:00;;;;;;;18.87;16.70;;;19.10;98.30;;;;;;5203244;22;20445;-84
2021/07/03 06:30:04;;;;;;;25.43;20.43;;;19.20;98.30;;;;;;5193762;22;20435;-84
2021/07/03 06:32:08;;;;;;;13.97;12.50;;;19.30;98.30;;;;;;5201196;22;20518;-84
2021/07/03 06:34:13;;;;;;;12.87;10.70;;;19.30;98.30;;;;;;5200773;22;20429;-84
2021/07/03 06:36:16;;;;;;;14.20;10.73;;;19.20;98.30;;;;;;5200788;22;20517;-84
2021/07/03 06:38:25;;;;;;;9.43;8.40;;;19.20;98.30;;;;;;5200722;22;20429;-84
2021/07/03 06:40:30;;;;;;;10.97;8.70;;;19.20;98.30;;;;;;5201178;22;20889;-85
2021/07/03 06:42:33;;;;;;;21.80;16.83;;;19.20;98.30;;;;;;5201426;22;20449;-85
2021/07/03 06:44:36;;;;;;;13.60;11.73;;;19.30;98.30;;;;;;5202232;22;20882;-85
2021/07/03 06:46:39;;;;;;;16.97;13.60;;;19.20;98.30;;;;;;5203269;22;20951;-84
2021/07/03 06:48:42;;;;;;;13.50;11.73;;;19.20;98.30;;;;;;5216190;22;20443;-84
2021/07/03 06:50:45;;;;;;;9.27;7.63;;;19.20;98.30;;;;;;5209095;22;20427;-88
2021/07/03 06:52:49;;;;;;;10.63;9.10;;;19.30;98.30;;;;;;5218492;22;20435;-85
2021/07/03 06:54:52;;;;;;;19.67;12.27;;;19.30;98.30;;;;;;5216669;22;20513;-84
2021/07/03 06:56:58;;;;;;;21.03;16.97;;;19.40;98.30;;;;;;5216887;22;20430;-87
2021/07/03 06:59:01;;;;;;;14.60;13.10;;;19.50;98.30;;;;;;5214351;22;20428;-85
2021/07/03 07:01:05;;;;;;;16.00;11.53;;;19.60;98.30;;;;;;5201905;22;20446;-85
2021/07/03 07:03:08;;;;;;;9.80;8.33;;;19.70;98.30;;;;;;5201077;22;20974;-85
2021/07/03 07:05:15;;;;;;;8.80;7.57;;;19.70;98.30;;;;;;5201213;22;20519;-84
2021/07/03 07:07:20;;;;;;;9.10;7.07;;;19.80;98.30;;;;;;5200938;22;20414;-84
2021/07/03 07:09:25;;;;;;;6.97;6.10;;;19.80;98.30;;;;;;5200825;22;20423;-84
2021/07/03 07:11:28;;;;;;;18.10;16.20;;;19.70;98.30;;;;;;5201535;22;20450;-83
2021/07/03 07:13:32;;;;;;;19.10;17.13;;;19.60;98.30;;;;;;5192887;22;20485;-84
2021/07/03 07:15:36;;;;;;;35.07;29.67;;;19.60;98.30;;;;;;5193377;22;20518;-84
2021/07/03 07:17:39;;;;;;;12.20;9.53;;;19.60;98.30;;;;;;5202806;22;20830;-84
2021/07/03 07:19:42;;;;;;;9.43;7.87;;;19.60;98.30;;;;;;5202361;22;20430;-84
2021/07/03 07:21:45;;;;;;;8.60;7.70;;;19.50;98.30;;;;;;5201643;22;20449;-84
2021/07/03 07:23:50;;;;;;;10.73;8.07;;;19.50;98.30;;;;;;5201669;22;20422;-84
2021/07/03 07:25:55;;;;;;;11.63;10.27;;;19.60;98.30;;;;;;5209701;22;20422;-84
2021/07/03 07:28:00;;;;;;;22.63;17.40;;;19.70;98.30;;;;;;5212455;22;21032;-85
2021/07/03 07:30:07;;;;;;;18.53;14.93;;;19.80;98.30;;;;;;5212262;22;20476;-85
2021/07/03 07:32:10;;;;;;;10.10;7.63;;;19.80;98.30;;;;;;5214362;22;20439;-85
2021/07/03 07:34:13;;;;;;;10.33;7.73;;;19.80;98.30;;;;;;5214109;22;20479;-85
2021/07/03 07:36:17;;;;;;;8.57;7.20;;;19.80;98.30;;;;;;5207435;22;20434;-85
2021/07/03 07:38:20;;;;;;;8.73;7.83;;;19.80;98.30;;;;;;5202621;22;20422;-84
2021/07/03 07:40:23;;;;;;;14.77;11.10;;;19.90;98.30;;;;;;5202927;22;20418;-83
2021/07/03 07:42:26;;;;;;;10.67;8.37;;;20.00;98.30;;;;;;5202401;22;20456;-84
2021/07/03 07:44:36;;;;;;;16.60;13.53;;;19.90;98.30;;;;;;5204157;22;20414;-83
2021/07/03 07:46:41;;;;;;;10.50;8.67;;;20.10;98.30;;;;;;5206374;22;20415;-82
2021/07/03 07:48:44;;;;;;;12.13;9.63;;;20.10;98.30;;;;;;5204875;22;20414;-84
2021/07/03 07:50:47;;;;;;;10.63;8.83;;;20.10;98.30;;;;;;5204394;22;20434;-84
2021/07/03 07:52:50;;;;;;;16.40;13.33;;;20.10;98.30;;;;;;5204997;22;20434;-84
2021/07/03 07:54:53;;;;;;;7.90;6.23;;;20.20;98.30;;;;;;5210293;22;20433;-83
2021/07/03 07:56:59;;;;;;;8.73;7.60;;;20.30;98.30;;;;;;5212925;22;20422;-83
2021/07/03 07:59:02;;;;;;;13.50;12.10;;;20.30;98.30;;;;;;5213322;22;20441;-83
2021/07/03 08:01:05;;;;;;;15.87;12.87;;;20.40;98.30;;;;;;5213960;22;20499;-83
2021/07/03 08:03:10;;;;;;;14.70;12.70;;;20.30;98.30;;;;;;5205520;22;20537;-84
2021/07/03 08:05:13;;;;;;;11.97;10.73;;;20.30;98.30;;;;;;5212544;22;21194;-84
2021/07/03 08:07:17;;;;;;;7.80;7.00;;;20.30;98.30;;;;;;5212780;22;20432;-83
2021/07/03 08:09:20;;;;;;;7.13;6.43;;;20.50;98.30;;;;;;5205706;22;20429;-84
2021/07/03 08:11:24;;;;;;;8.93;8.13;;;20.50;98.30;;;;;;5204132;22;20513;-84
2021/07/03 08:13:27;;;;;;;7.77;6.87;;;20.60;98.30;;;;;;5204725;22;20442;-83
2021/07/03 08:15:34;;;;;;;6.60;5.93;;;20.80;98.30;;;;;;5205722;22;20418;-83
2021/07/03 08:17:42;;;;;;;6.33;5.73;;;20.70;98.30;;;;;;5205725;22;20417;-82
2021/07/03 08:19:47;;;;;;;6.73;6.00;;;20.70;98.30;;;;;;5203910;22;20434;-84
2021/07/03 08:21:49;;;;;;;5.60;5.10;;;20.80;98.30;;;;;;5203019;22;20435;-83
2021/07/03 08:23:52;;;;;;;5.77;5.17;;;20.90;98.30;;;;;;5202982;22;20442;-83
2021/07/03 08:25:55;;;;;;;6.53;5.23;;;20.90;98.30;;;;;;5203779;22;20453;-83
2021/07/03 08:27:58;;;;;;;5.13;4.63;;;21.10;98.30;;;;;;5203386;22;20426;-83
2021/07/03 08:30:01;;;;;;;6.97;5.07;;;21.00;98.30;;;;;;5202584;22;20427;-84
2021/07/03 08:32:31;;;;;;;6.97;5.27;;;20.90;98.30;;;;;;5204382;22;20439;-83
2021/07/03 08:38:20;;;;;;;5.50;5.00;;;20.70;98.30;;;;;;5187482;22;20969;-83
2021/07/03 08:40:48;;;;;;;5.90;4.60;;;20.90;98.30;;;;;;5206925;22;20449;-83
2021/07/03 08:46:03;;;;;;;8.13;4.97;;;20.90;98.30;;;;;;5207278;22;20422;-83
2021/07/03 08:51:44;;;;;;;;;;;;;;;;;;;;;
2021/07/03 08:53:56;;;;;;;5.70;5.00;;;20.90;98.30;;;;;;5177509;22;20990;-83
2021/07/03 08:56:02;;;;;;;5.53;5.03;;;20.90;98.30;;;;;;5192132;22;20418;-83
2021/07/03 08:58:10;;;;;;;7.87;4.97;;;20.90;98.30;;;;;;5201497;22;20418;-83
2021/07/03 09:00:32;;;;;;;11.10;6.90;;;20.90;98.30;;;;;;5189416;22;20427;-83
2021/07/03 21:30:41;;;;;;;10.13;8.07;;;20.20;98.30;;;;;;5168563;22;20761;-80
2021/07/03 21:32:44;;;;;;;8.60;6.73;;;20.10;98.30;;;;;;5202811;22;20422;-80
2021/07/03 21:34:47;;;;;;;7.33;6.63;;;20.00;98.30;;;;;;5202647;22;20425;-80
2021/07/03 21:36:50;;;;;;;9.40;8.00;;;19.90;98.30;;;;;;5204927;22;20448;-80
2021/07/03 21:38:53;;;;;;;7.93;7.20;;;19.90;98.30;;;;;;5204618;22;20430;-80
2021/07/03 21:40:57;;;;;;;7.30;6.60;;;19.90;98.30;;;;;;5205344;22;20472;-83
2021/07/03 21:43:01;;;;;;;9.07;8.17;;;19.90;98.30;;;;;;5203360;22;20450;-82
2021/07/03 21:45:06;;;;;;;10.60;9.60;;;19.80;98.30;;;;;;5200340;22;20460;-82
2021/07/03 21:47:11;;;;;;;12.57;11.27;;;19.90;98.30;;;;;;5209124;22;20426;-82
2021/07/03 21:49:14;;;;;;;11.13;8.60;;;19.90;98.30;;;;;;5210681;22;20557;-83
2021/07/03 21:51:17;;;;;;;10.57;8.37;;;19.90;98.30;;;;;;5201133;22;20423;-82
2021/07/03 21:53:21;;;;;;;10.57;7.97;;;19.90;98.30;;;;;;5200909;22;20434;-82
2021/07/03 21:55:23;;;;;;;7.67;6.97;;;19.80;98.30;;;;;;5200796;22;20787;-82
2021/07/03 21:57:26;;;;;;;11.87;10.53;;;19.80;98.30;;;;;;5208901;22;20419;-82
2021/07/03 21:59:29;;;;;;;26.67;23.83;;;19.80;98.30;;;;;;5200095;22;20437;-83
2021/07/03 22:01:32;;;;;;;34.63;28.67;;;19.80;98.30;;;;;;5201068;22;20429;-83
2021/07/03 22:03:37;;;;;;;15.60;14.00;;;19.70;98.30;;;;;;5192362;22;20439;-84
2021/07/03 22:05:43;;;;;;;12.27;10.53;;;19.70;98.30;;;;;;5199948;22;20447;-84
2021/07/03 22:07:46;;;;;;;9.97;8.83;;;19.60;98.30;;;;;;5191961;22;20411;-84
2021/07/03 22:09:49;;;;;;;10.10;9.20;;;19.60;98.30;;;;;;5191629;22;20463;-84
2021/07/03 22:11:52;;;;;;;12.20;11.00;;;19.60;98.30;;;;;;5199986;22;20426;-84
2021/07/03 22:13:55;;;;;;;11.33;10.20;;;19.60;98.30;;;;;;5192481;22;20419;-84
2021/07/03 22:16:00;;;;;;;10.93;9.83;;;19.60;98.30;;;;;;5191121;22;20444;-83
2021/07/03 22:18:04;;;;;;;9.63;8.53;;;19.50;98.30;;;;;;5200497;22;20760;-84
2021/07/03 22:20:11;;;;;;;9.50;8.30;;;19.50;98.30;;;;;;5200257;22;20963;-84
2021/07/03 22:22:23;;;;;;;11.30;8.53;;;19.40;98.30;;;;;;5191368;22;20514;-85
2021/07/03 22:24:47;;;;;;;10.07;8.83;;;19.40;98.30;;;;;;5200061;22;20438;-85
2021/07/03 22:27:03;;;;;;;9.13;8.23;;;19.30;98.30;;;;;;5199471;22;20446;-84
2021/07/03 22:29:18;;;;;;;9.10;8.20;;;19.30;98.30;;;;;;5199368;22;20455;-84
2021/07/03 22:31:30;;;;;;;12.23;10.50;;;19.30;98.30;;;;;;5199262;22;20442;-84
2021/07/03 22:33:33;;;;;;;10.50;9.40;;;19.30;98.30;;;;;;5200214;22;20978;-84
2021/07/03 22:35:40;;;;;;;10.03;9.03;;;19.20;98.30;;;;;;5199847;22;20446;-84
2021/07/03 22:37:48;;;;;;;9.13;8.33;;;19.20;98.30;;;;;;5199742;22;20418;-84
2021/07/03 22:39:57;;;;;;;9.57;8.17;;;19.20;98.30;;;;;;5199723;22;20510;-84
2021/07/03 22:42:18;;;;;;;8.60;7.80;;;19.10;98.30;;;;;;5199666;22;20478;-85
2021/07/03 22:44:26;;;;;;;10.77;9.67;;;19.10;98.30;;;;;;5199430;22;20434;-84
2021/07/03 22:46:30;;;;;;;10.93;9.93;;;19.10;98.30;;;;;;5199592;22;20450;-83
2021/07/03 22:48:33;;;;;;;9.50;8.60;;;19.10;98.30;;;;;;5198802;22;20809;-84
2021/07/03 22:50:37;;;;;;;10.97;9.77;;;19.10;98.30;;;;;;5191579;22;20439;-84
2021/07/03 22:52:42;;;;;;;10.50;9.50;;;19.20;98.30;;;;;;5199847;22;20433;-84
2021/07/03 22:54:51;;;;;;;10.30;9.30;;;19.10;98.30;;;;;;5199818;22;20415;-85
2021/07/03 22:57:38;;;;;;;10.00;9.10;;;19.10;98.30;;;;;;5200206;22;20438;-85
2021/07/03 23:08:45;;;;;;;;;;;;;;;;;;;;;
2021/07/03 23:11:36;;;;;;;31.00;25.80;;;19.00;98.30;;;;;;5074353;23;20444;-85
2021/07/03 23:19:21;;;;;;;17.53;14.47;;;18.90;98.30;;;;;;4966752;23;20439;-84
2021/07/03 23:22:13;;;;;;;;;;;;;;;;;;;;;
2021/07/03 23:25:04;;;;;;;13.77;12.37;;;19.00;98.30;;;;;;5108212;23;20446;-84
2021/07/03 23:27:47;;;;;;;13.33;11.93;;;18.90;98.30;;;;;;5123911;23;21010;-84
2021/07/03 23:30:26;;;;;;;13.20;11.93;;;18.90;98.30;;;;;;5123210;23;20436;-84
2021/07/03 23:32:35;;;;;;;13.70;12.27;;;18.90;98.30;;;;;;5108492;23;20442;-84
2021/07/03 23:34:39;;;;;;;11.80;10.80;;;18.90;98.30;;;;;;5167571;22;21096;-83
2021/07/03 23:36:46;;;;;;;13.83;12.53;;;18.90;98.30;;;;;;5201216;22;20446;-84
2021/07/03 23:42:16;;;;;;;;;;;;;;;;;;;;;
2021/07/03 23:47:28;;;;;;;;;;;;;;;;;;;;;
2021/07/03 23:49:35;;;;;;;11.30;10.30;;;18.60;98.30;;;;;;5198577;22;20755;-83
2021/07/03 23:51:42;;;;;;;11.77;10.73;;;18.60;98.30;;;;;;5202473;22;20419;-84
2021/07/03 23:53:50;;;;;;;12.97;10.23;;;18.60;98.30;;;;;;5200988;22;20422;-83
